Time;durP1;ratioP1;P1;durP2;ratioP2;P2;SDS_P1;SDS_P2;PMS_P1;PMS_P2;Temp;Humidity;BMP_temperature;BMP_pressure;BME280_temperature;BME280_humidity;BME280_pressure;Samples;Min_cycle;Max_cycle;Signal;HPM_P1;HPM_P2
2023/08/25 00:00:48;;;;;;;56.67;25.17;;;19.20;99.90;;;;;;5052089;28;20064;-71
2023/08/25 00:03:14;;;;;;;57.00;26.50;;;19.20;99.90;;;;;;5052386;28;20045;-73
2023/08/25 00:05:40;;;;;;;60.93;25.97;;;19.10;99.90;;;;;;5053713;28;20127;-74
2023/08/25 00:08:06;;;;;;;57.05;25.55;;;19.10;99.90;;;;;;5052563;28;20048;-73
2023/08/25 00:10:33;;;;;;;57.35;26.77;;;19.00;99.90;;;;;;5053343;28;20394;-74
2023/08/25 00:12:59;;;;;;;;;;;19.00;99.90;;;;;;5053939;28;20056;-74
2023/08/25 00:15:24;;;;;;;50.40;25.47;;;19.00;99.90;;;;;;5053658;28;20284;-74
2023/08/25 00:17:53;;;;;;;56.93;27.00;;;18.90;99.90;;;;;;5051895;28;20044;-72
2023/08/25 00:20:19;;;;;;;58.08;26.95;;;18.90;99.90;;;;;;5036581;28;20056;-73
2023/08/25 00:22:45;;;;;;;55.08;27.30;;;18.80;99.90;;;;;;5053986;28;20049;-74
2023/08/25 00:25:11;;;;;;;62.23;26.13;;;18.80;99.90;;;;;;5052447;28;20469;-73
2023/08/25 00:27:36;;;;;;;53.83;25.90;;;18.80;99.90;;;;;;5053053;28;20085;-74
2023/08/25 00:30:03;;;;;;;55.57;25.63;;;18.80;99.90;;;;;;5053027;28;20499;-75
2023/08/25 00:32:28;;;;;;;59.67;26.77;;;18.80;99.90;;;;;;5053040;28;20049;-74
2023/08/25 00:34:54;;;;;;;57.90;26.73;;;18.80;99.90;;;;;;5052583;28;20079;-72
2023/08/25 00:37:20;;;;;;;57.77;26.97;;;18.80;99.90;;;;;;5052030;28;20056;-74
2023/08/25 00:39:46;;;;;;;58.27;26.80;;;18.80;99.90;;;;;;5039288;28;20417;-75
2023/08/25 00:42:11;;;;;;;52.20;26.17;;;18.70;99.90;;;;;;5055359;28;20045;-74
2023/08/25 00:44:37;;;;;;;55.57;25.67;;;18.80;99.90;;;;;;5057435;28;20056;-72
2023/08/25 00:47:04;;;;;;;60.57;27.47;;;18.90;99.90;;;;;;5056741;28;20041;-74
2023/08/25 00:49:30;;;;;;;56.67;26.15;;;19.00;99.90;;;;;;5057431;28;20045;-75
2023/08/25 00:51:57;;;;;;;54.00;26.03;;;19.00;99.90;;;;;;5056405;28;20384;-75
2023/08/25 00:54:25;;;;;;;55.85;25.40;;;19.10;99.90;;;;;;5057107;28;20055;-75
2023/08/25 00:56:52;;;;;;;55.80;26.75;;;19.10;99.90;;;;;;5055540;28;20432;-74
2023/08/25 00:59:18;;;;;;;52.45;24.65;;;19.20;99.90;;;;;;5056092;28;20473;-75
2023/08/25 01:01:44;;;;;;;57.63;26.95;;;19.30;99.90;;;;;;5055072;28;20045;-75
2023/08/25 01:04:11;;;;;;;61.17;26.70;;;19.30;99.90;;;;;;5055116;28;20477;-74
2023/08/25 01:06:39;;;;;;;58.65;27.08;;;19.30;99.90;;;;;;5056391;28;20056;-75
2023/08/25 01:09:06;;;;;;;58.67;25.33;;;19.30;99.90;;;;;;5088778;28;20048;-75
2023/08/25 01:11:46;;;;;;;;;;;19.30;99.90;;;;;;5056794;28;20053;-74
2023/08/25 01:14:31;;;;;;;55.85;25.25;;;19.30;99.90;;;;;;5057064;28;20026;-75
2023/08/25 01:17:26;;;;;;;56.83;25.63;;;19.30;99.90;;;;;;5055969;28;20110;-75
2023/08/25 01:20:08;;;;;;;57.25;25.70;;;19.40;99.90;;;;;;5057089;28;20041;-75
2023/08/25 01:22:55;;;;;;;57.10;27.88;;;19.40;99.90;;;;;;5056640;28;20055;-73
2023/08/25 01:25:27;;;;;;;66.72;28.23;;;19.40;99.90;;;;;;5056503;28;20053;-76
2023/08/25 01:27:55;;;;;;;62.72;27.90;;;19.40;99.90;;;;;;5055970;28;20040;-75
2023/08/25 01:30:24;;;;;;;63.47;27.90;;;19.40;99.90;;;;;;5055876;28;20051;-74
2023/08/25 01:32:54;;;;;;;69.10;29.70;;;19.40;99.90;;;;;;5054726;28;20512;-74
2023/08/25 01:35:45;;;;;;;72.40;29.15;;;19.40;99.90;;;;;;5088672;28;20087;-74
2023/08/25 01:38:33;;;;;;;68.13;28.65;;;19.40;99.90;;;;;;5051525;28;20053;-73
2023/08/25 01:41:19;;;;;;;65.97;29.67;;;19.40;99.90;;;;;;5055791;28;20119;-73
2023/08/25 01:43:49;;;;;;;72.82;29.98;;;19.40;99.90;;;;;;5055686;28;20353;-74
2023/08/25 01:46:19;;;;;;;74.43;30.58;;;19.40;99.90;;;;;;5055617;28;20490;-75
2023/08/25 01:48:49;;;;;;;63.72;29.25;;;19.40;99.90;;;;;;5088232;28;20354;-74
2023/08/25 01:51:16;;;;;;;69.82;29.90;;;19.40;99.90;;;;;;5087880;28;20536;-76
2023/08/25 01:53:43;;;;;;;;;;;19.40;99.90;;;;;;5088474;28;20071;-74
2023/08/25 01:56:08;;;;;;;67.57;30.27;;;19.50;99.90;;;;;;5055534;28;19921;-74
2023/08/25 01:58:34;;;;;;;70.50;31.23;;;19.40;99.90;;;;;;5055904;28;20120;-75
2023/08/25 02:01:00;;;;;;;71.33;30.10;;;19.40;99.90;;;;;;5056283;28;20052;-74
2023/08/25 02:03:25;;;;;;;70.93;30.57;;;19.40;99.90;;;;;;5054269;28;20056;-74
2023/08/25 02:05:51;;;;;;;76.50;28.90;;;19.40;99.90;;;;;;5055042;28;20136;-76
2023/08/25 02:08:17;;;;;;;83.43;33.17;;;19.40;99.90;;;;;;5055569;28;20351;-74
2023/08/25 02:10:43;;;;;;;72.83;32.17;;;19.40;99.90;;;;;;5054030;28;20148;-75
2023/08/25 02:13:09;;;;;;;72.55;31.15;;;19.40;99.90;;;;;;5055081;28;20049;-76
2023/08/25 02:15:35;;;;;;;74.77;32.43;;;19.40;99.90;;;;;;5055198;28;20394;-75
2023/08/25 02:18:00;;;;;;;77.33;33.37;;;19.40;99.90;;;;;;5087125;28;20458;-73
2023/08/25 02:20:26;;;;;;;80.00;32.70;;;19.40;99.90;;;;;;5053837;28;20049;-74
2023/08/25 02:22:52;;;;;;;80.70;33.00;;;19.50;99.90;;;;;;5054885;28;20071;-74
2023/08/25 02:25:18;;;;;;;87.30;34.13;;;19.50;99.90;;;;;;5054803;28;20045;-74
2023/08/25 02:27:43;;;;;;;78.70;33.20;;;19.40;99.90;;;;;;5055448;28;20080;-73
2023/08/25 02:30:10;;;;;;;85.70;33.70;;;19.50;99.90;;;;;;5053618;28;20045;-76
2023/08/25 02:32:35;;;;;;;94.13;36.00;;;19.40;99.90;;;;;;5054862;28;20409;-74
2023/08/25 02:35:01;;;;;;;87.57;34.07;;;19.30;99.90;;;;;;5070402;28;20052;-74
2023/08/25 02:37:27;;;;;;;84.07;34.83;;;19.20;99.90;;;;;;5054720;28;20052;-75
2023/08/25 02:39:52;;;;;;;81.83;34.10;;;19.20;99.90;;;;;;5054655;28;20052;-75
2023/08/25 02:42:18;;;;;;;88.27;35.77;;;19.10;99.90;;;;;;5070086;28;20075;-75
2023/08/25 02:44:44;;;;;;;87.07;34.70;;;19.00;99.90;;;;;;5054641;28;20091;-76
2023/08/25 02:47:10;;;;;;;88.50;36.10;;;19.00;99.90;;;;;;5054989;28;20048;-73
2023/08/25 02:49:38;;;;;;;92.90;36.83;;;18.90;99.90;;;;;;5053344;28;20523;-75
2023/08/25 02:52:05;;;;;;;98.88;38.17;;;18.90;99.90;;;;;;5054165;28;20048;-75
2023/08/25 02:54:31;;;;;;;101.13;37.90;;;18.80;99.90;;;;;;5054863;28;20488;-75
2023/08/25 02:56:56;;;;;;;103.23;39.13;;;18.80;99.90;;;;;;5053837;28;20136;-77
2023/08/25 02:59:22;;;;;;;105.27;39.40;;;18.80;99.90;;;;;;5054569;28;20421;-75
2023/08/25 03:01:48;;;;;;;114.90;40.70;;;18.70;99.90;;;;;;5054193;28;20128;-75
2023/08/25 03:04:13;;;;;;;104.27;39.47;;;18.70;99.90;;;;;;5052971;28;20075;-74
2023/08/25 03:06:39;;;;;;;105.70;39.90;;;18.60;99.90;;;;;;5054641;28;20060;-75
2023/08/25 03:09:05;;;;;;;105.37;39.23;;;18.60;99.90;;;;;;5055587;28;20055;-75
2023/08/25 03:11:31;;;;;;;111.87;38.97;;;18.60;99.90;;;;;;5070550;28;20048;-75
2023/08/25 03:13:57;;;;;;;106.50;39.83;;;18.50;99.90;;;;;;5052900;28;20052;-75
2023/08/25 03:16:23;;;;;;;115.67;40.30;;;18.50;99.90;;;;;;5054780;28;20373;-74
2023/08/25 03:18:48;;;;;;;117.80;41.87;;;18.50;99.90;;;;;;5035971;28;20295;-75
2023/08/25 03:21:14;;;;;;;112.77;40.13;;;18.40;99.90;;;;;;5052841;28;20101;-74
2023/08/25 03:23:40;;;;;;;117.30;41.83;;;18.40;99.90;;;;;;5053864;28;20045;-75
2023/08/25 03:26:06;;;;;;;129.65;41.63;;;18.40;99.90;;;;;;5053902;28;20045;-77
2023/08/25 03:28:35;;;;;;;118.90;43.00;;;18.30;99.90;;;;;;5035949;28;20097;-76
2023/08/25 03:31:01;;;;;;;123.15;42.42;;;18.30;99.90;;;;;;5069565;28;20046;-76
2023/08/25 03:33:27;;;;;;;130.07;42.67;;;18.30;99.90;;;;;;5053297;28;20049;-76
2023/08/25 03:35:52;;;;;;;127.43;42.93;;;18.30;99.90;;;;;;5054229;28;20045;-76
2023/08/25 03:38:18;;;;;;;128.10;42.33;;;18.30;99.90;;;;;;5036066;28;20040;-76
2023/08/25 03:40:44;;;;;;;112.97;40.00;;;18.20;99.90;;;;;;5086124;28;20057;-75
2023/08/25 03:43:09;;;;;;;134.67;43.60;;;18.20;99.90;;;;;;5052844;28;20094;-75
2023/08/25 03:45:36;;;;;;;139.17;45.27;;;18.20;99.90;;;;;;5053469;28;20052;-75
2023/08/25 03:48:02;;;;;;;128.10;42.88;;;18.20;99.90;;;;;;5053487;28;20059;-76
2023/08/25 03:50:28;;;;;;;134.93;44.13;;;18.10;99.90;;;;;;5053268;28;20052;-75
2023/08/25 03:52:54;;;;;;;131.03;42.80;;;18.10;99.90;;;;;;5052591;28;20098;-75
2023/08/25 03:55:19;;;;;;;135.07;43.87;;;18.10;99.90;;;;;;5052404;28;20512;-74
2023/08/25 03:57:45;;;;;;;132.17;44.60;;;18.00;99.90;;;;;;5052446;28;20194;-75
2023/08/25 04:00:11;;;;;;;149.53;46.03;;;18.00;99.90;;;;;;5086743;28;20536;-76
2023/08/25 04:02:39;;;;;;;146.40;44.33;;;18.00;99.90;;;;;;5052160;28;20041;-76
2023/08/25 04:05:06;;;;;;;154.90;45.78;;;18.00;99.90;;;;;;5052084;28;20507;-76
2023/08/25 04:07:31;;;;;;;131.50;44.05;;;18.00;99.90;;;;;;5053127;28;20041;-76
2023/08/25 04:09:57;;;;;;;134.13;42.73;;;17.90;99.90;;;;;;5053525;28;20049;-75
2023/08/25 04:12:23;;;;;;;142.17;44.40;;;17.90;99.90;;;;;;5053513;28;20045;-75
2023/08/25 04:14:48;;;;;;;164.93;45.77;;;17.90;99.90;;;;;;5058556;28;20049;-75
2023/08/25 04:17:14;;;;;;;138.20;43.77;;;17.80;99.90;;;;;;5061445;28;20410;-75
2023/08/25 04:19:40;;;;;;;168.07;45.40;;;17.80;99.90;;;;;;5063997;28;20053;-76
2023/08/25 04:22:06;;;;;;;138.47;43.63;;;17.70;99.90;;;;;;5056060;28;20044;-76
2023/08/25 04:24:31;;;;;;;129.57;42.77;;;17.70;99.90;;;;;;5057572;28;20056;-77
2023/08/25 04:26:57;;;;;;;144.13;43.97;;;17.60;99.90;;;;;;5056092;28;20052;-76
2023/08/25 04:29:23;;;;;;;135.13;43.93;;;17.70;99.90;;;;;;5056992;28;20049;-74
2023/08/25 04:31:49;;;;;;;142.87;44.43;;;17.70;99.90;;;;;;5056052;28;20127;-77
2023/08/25 04:34:14;;;;;;;148.40;46.30;;;17.70;99.90;;;;;;5057055;28;20397;-76
2023/08/25 04:36:40;;;;;;;145.47;45.80;;;17.80;99.90;;;;;;5039495;28;20041;-76
2023/08/25 04:39:06;;;;;;;153.37;47.20;;;17.80;99.90;;;;;;5073300;28;20179;-76
2023/08/25 04:41:31;;;;;;;156.40;48.87;;;17.80;99.90;;;;;;5039361;28;20401;-76
2023/08/25 04:43:57;;;;;;;160.37;47.57;;;17.80;99.90;;;;;;5057551;28;20044;-76
2023/08/25 04:46:25;;;;;;;159.33;47.97;;;17.90;99.90;;;;;;5057432;28;20474;-75
2023/08/25 04:48:50;;;;;;;158.38;48.13;;;17.90;99.90;;;;;;5055528;28;20103;-76
2023/08/25 04:51:16;;;;;;;159.50;48.37;;;17.90;99.90;;;;;;5057669;28;20077;-76
2023/08/25 04:53:42;;;;;;;144.63;45.23;;;17.90;99.90;;;;;;5055929;28;20150;-76
2023/08/25 04:56:08;;;;;;;154.23;46.90;;;17.90;99.90;;;;;;5056775;28;20047;-76
2023/08/25 04:58:33;;;;;;;141.07;44.80;;;17.90;99.90;;;;;;5056365;28;20049;-77
2023/08/25 05:00:59;;;;;;;152.53;47.83;;;17.90;99.90;;;;;;5056612;28;20044;-77
2023/08/25 05:03:25;;;;;;;186.10;51.57;;;17.90;99.90;;;;;;5055410;28;20055;-76
2023/08/25 05:05:51;;;;;;;155.37;49.17;;;17.90;99.90;;;;;;5088724;28;20401;-77
2023/08/25 05:08:16;;;;;;;155.80;48.50;;;17.80;99.90;;;;;;5056921;28;20044;-76
2023/08/25 05:10:42;;;;;;;177.83;48.77;;;17.90;99.90;;;;;;5055360;28;20045;-77
2023/08/25 05:13:08;;;;;;;159.83;48.60;;;17.90;99.90;;;;;;5057091;28;20469;-76
2023/08/25 05:15:33;;;;;;;185.87;50.00;;;17.90;99.90;;;;;;5038711;28;20133;-77
2023/08/25 05:17:59;;;;;;;159.43;51.57;;;18.00;99.90;;;;;;5055295;28;20061;-76
2023/08/25 05:20:25;;;;;;;172.70;51.50;;;18.10;99.90;;;;;;5055410;28;20064;-75
2023/08/25 05:22:51;;;;;;;201.02;52.08;;;18.20;99.90;;;;;;5038992;28;20051;-76
2023/08/25 05:25:23;;;;;;;175.43;51.07;;;18.20;99.90;;;;;;5056494;28;20037;-76
2023/08/25 05:27:48;;;;;;;168.30;46.40;;;18.30;99.90;;;;;;5055768;28;20045;-76
2023/08/25 05:30:14;;;;;;;174.83;48.50;;;18.40;99.90;;;;;;5055907;28;20049;-76
2023/08/25 05:32:40;;;;;;;201.07;49.87;;;18.40;99.90;;;;;;5054734;28;20064;-77
2023/08/25 05:35:06;;;;;;;177.07;51.13;;;18.50;99.90;;;;;;5054994;28;20488;-77
2023/08/25 05:37:33;;;;;;;189.23;48.25;;;18.50;99.90;;;;;;5055936;28;20477;-75
2023/08/25 05:39:59;;;;;;;;;;;18.60;99.90;;;;;;5056028;28;20505;-75
2023/08/25 05:42:27;;;;;;;182.23;48.80;;;18.60;99.90;;;;;;5055732;28;19935;-77
2023/08/25 05:44:53;;;;;;;190.50;52.83;;;18.70;99.90;;;;;;5055598;28;20197;-76
2023/08/25 05:47:19;;;;;;;182.40;49.25;;;18.70;99.90;;;;;;5088170;28;20447;-77
2023/08/25 05:49:45;;;;;;;180.98;52.65;;;18.80;99.90;;;;;;5055129;28;20045;-77
2023/08/25 05:52:10;;;;;;;183.30;51.17;;;18.90;99.90;;;;;;5055764;28;20508;-75
2023/08/25 05:54:36;;;;;;;182.83;52.07;;;18.90;99.90;;;;;;5071508;28;20068;-75
2023/08/25 05:57:02;;;;;;;174.27;49.13;;;19.00;99.90;;;;;;5055837;28;20135;-76
2023/08/25 05:59:32;;;;;;;165.40;48.47;;;19.10;99.90;;;;;;5055605;28;20388;-75
2023/08/25 06:01:57;;;;;;;176.57;51.20;;;19.10;99.90;;;;;;5055816;28;20045;-76
2023/08/25 06:04:23;;;;;;;178.60;51.83;;;19.10;99.90;;;;;;5055403;28;20061;-76
2023/08/25 06:06:49;;;;;;;175.87;52.37;;;19.20;99.90;;;;;;5055193;28;20040;-77
2023/08/25 06:09:17;;;;;;;172.53;51.53;;;19.20;99.90;;;;;;5053639;28;20040;-76
2023/08/25 06:11:44;;;;;;;163.65;52.25;;;19.30;99.90;;;;;;5054408;28;20123;-76
2023/08/25 06:14:10;;;;;;;;;;;19.30;99.90;;;;;;5054620;28;20045;-77
2023/08/25 06:16:39;;;;;;;145.57;47.03;;;19.40;99.90;;;;;;5037615;28;20392;-77
2023/08/25 06:19:06;;;;;;;156.13;50.28;;;19.40;99.90;;;;;;5055880;28;20148;-76
2023/08/25 06:21:31;;;;;;;161.48;48.05;;;19.40;99.90;;;;;;5088662;28;20049;-78
2023/08/25 06:23:57;;;;;;;163.03;48.63;;;19.50;99.90;;;;;;5057539;28;20045;-78
2023/08/25 06:26:23;;;;;;;141.73;47.10;;;19.60;99.90;;;;;;5091113;28;20060;-77
2023/08/25 06:28:50;;;;;;;175.07;49.87;;;19.60;99.90;;;;;;5063088;28;20055;-77
2023/08/25 06:31:16;;;;;;;144.18;46.35;;;19.70;99.90;;;;;;5054633;28;20051;-76
2023/08/25 06:33:42;;;;;;;145.60;47.53;;;19.60;99.90;;;;;;5055656;28;20106;-75
2023/08/25 06:36:07;;;;;;;150.63;47.87;;;19.70;99.90;;;;;;5053644;28;20049;-76
2023/08/25 06:38:33;;;;;;;150.00;46.90;;;19.70;99.90;;;;;;5053812;28;20041;-77
2023/08/25 06:40:59;;;;;;;147.60;47.90;;;19.70;99.90;;;;;;5054276;28;20091;-77
2023/08/25 06:43:24;;;;;;;154.00;50.13;;;19.70;99.90;;;;;;5036872;28;20060;-76
2023/08/25 06:45:50;;;;;;;145.90;48.57;;;19.70;99.90;;;;;;5053239;28;20053;-76
2023/08/25 06:48:16;;;;;;;145.87;48.70;;;19.70;99.90;;;;;;5053008;28;20473;-77
2023/08/25 06:50:42;;;;;;;142.40;47.67;;;19.70;99.90;;;;;;5037086;28;20084;-75
2023/08/25 06:53:07;;;;;;;142.83;47.83;;;19.70;99.90;;;;;;5053638;28;20045;-77
2023/08/25 06:55:34;;;;;;;146.80;49.53;;;19.70;99.90;;;;;;5053297;28;20051;-76
2023/08/25 06:58:01;;;;;;;154.32;49.20;;;19.70;99.90;;;;;;5054144;28;20040;-77
2023/08/25 07:00:26;;;;;;;165.80;51.03;;;19.70;99.90;;;;;;5054277;28;20053;-75
2023/08/25 07:02:52;;;;;;;153.67;50.40;;;19.80;99.90;;;;;;5053403;28;20055;-77
2023/08/25 07:05:18;;;;;;;159.70;50.60;;;19.90;99.90;;;;;;5020143;28;20084;-77
2023/08/25 07:07:44;;;;;;;157.67;49.90;;;19.90;99.90;;;;;;5054010;28;20041;-75
2023/08/25 07:10:13;;;;;;;161.27;52.07;;;20.00;99.90;;;;;;5054103;28;20053;-75
2023/08/25 07:12:39;;;;;;;166.93;52.35;;;20.10;99.90;;;;;;5053881;28;20309;-76
2023/08/25 07:15:10;;;;;;;162.35;51.28;;;20.20;99.90;;;;;;5086548;28;20049;-76
2023/08/25 07:17:36;;;;;;;155.30;51.03;;;20.10;99.90;;;;;;5053700;28;20052;-75
2023/08/25 07:20:04;;;;;;;152.60;50.72;;;20.30;99.90;;;;;;5053842;28;20049;-76
2023/08/25 07:22:31;;;;;;;155.85;51.22;;;20.40;99.90;;;;;;5052937;28;20053;-75
2023/08/25 07:24:58;;;;;;;;;;;20.50;99.90;;;;;;5054844;28;20050;-76
2023/08/25 07:27:24;;;;;;;158.20;50.65;;;20.40;99.90;;;;;;5086327;28;20032;-75
2023/08/25 07:29:53;;;;;;;150.55;49.55;;;20.50;99.90;;;;;;5052630;28;20114;-75
2023/08/25 07:32:19;;;;;;;158.15;51.10;;;20.60;99.90;;;;;;5053643;28;20486;-77
2023/08/25 07:34:48;;;;;;;149.80;49.03;;;20.70;99.90;;;;;;5053850;28;20072;-76
2023/08/25 07:37:14;;;;;;;151.45;50.45;;;20.80;99.90;;;;;;5053636;28;20041;-76
2023/08/25 07:39:40;;;;;;;150.00;50.40;;;21.00;99.90;;;;;;5053841;28;20048;-76
2023/08/25 07:42:06;;;;;;;154.93;51.13;;;21.10;99.90;;;;;;5054123;28;20049;-76
2023/08/25 07:44:32;;;;;;;138.13;48.97;;;21.30;99.90;;;;;;5055050;28;20052;-77
2023/08/25 07:46:58;;;;;;;143.27;49.47;;;21.40;99.90;;;;;;5053502;28;20044;-75
2023/08/25 07:49:24;;;;;;;133.00;47.30;;;21.40;99.90;;;;;;5053646;28;20045;-75
2023/08/25 07:51:50;;;;;;;134.73;46.67;;;21.40;99.90;;;;;;5054186;28;20044;-75
2023/08/25 07:54:15;;;;;;;131.55;45.88;;;21.50;99.90;;;;;;5053018;28;20067;-75
2023/08/25 07:56:41;;;;;;;128.50;45.57;;;21.70;99.90;;;;;;5053635;28;20049;-74
2023/08/25 07:59:07;;;;;;;122.20;43.42;;;21.80;99.90;;;;;;5053364;28;20128;-74
2023/08/25 08:01:33;;;;;;;112.78;42.72;;;21.80;99.90;;;;;;5053128;28;20382;-74
2023/08/25 08:03:59;;;;;;;120.40;44.63;;;21.90;99.90;;;;;;5053553;28;20462;-76
2023/08/25 08:06:25;;;;;;;115.97;43.73;;;22.00;99.90;;;;;;5052331;28;20279;-76
2023/08/25 08:08:50;;;;;;;121.73;45.50;;;22.10;99.90;;;;;;5052013;28;20041;-77
2023/08/25 08:11:16;;;;;;;121.33;44.50;;;22.10;99.90;;;;;;5054026;28;20132;-74
2023/08/25 08:13:42;;;;;;;121.87;45.27;;;22.20;99.90;;;;;;5086315;28;20098;-76
2023/08/25 08:16:08;;;;;;;119.10;44.47;;;22.20;99.90;;;;;;5053617;28;20056;-75
2023/08/25 08:18:33;;;;;;;119.07;44.03;;;22.10;99.90;;;;;;5053338;28;20063;-78
2023/08/25 08:20:59;;;;;;;113.40;43.10;;;22.00;99.90;;;;;;5052540;28;20048;-75
2023/08/25 08:23:25;;;;;;;121.13;43.33;;;22.00;99.90;;;;;;5052209;28;20056;-75
2023/08/25 08:25:51;;;;;;;120.73;43.83;;;21.90;99.90;;;;;;5053095;28;20052;-77
2023/08/25 08:28:16;;;;;;;120.93;43.30;;;21.90;99.90;;;;;;5053112;28;20043;-76
2023/08/25 08:30:43;;;;;;;117.13;44.00;;;21.80;99.90;;;;;;5051948;28;20049;-75
2023/08/25 08:33:09;;;;;;;;;;;21.70;99.90;;;;;;5054230;28;20080;-75
2023/08/25 08:35:35;;;;;;;118.30;42.92;;;21.60;99.90;;;;;;5052244;28;20380;-76
2023/08/25 08:38:01;;;;;;;111.10;41.67;;;21.40;99.90;;;;;;5035556;28;20128;-75
2023/08/25 08:40:31;;;;;;;111.83;43.00;;;21.40;99.90;;;;;;5053162;28;20049;-76
2023/08/25 08:43:02;;;;;;;111.70;41.78;;;21.50;99.90;;;;;;5020676;28;20465;-75
2023/08/25 08:45:33;;;;;;;114.95;44.67;;;21.70;99.90;;;;;;5053781;28;20049;-76
2023/08/25 08:48:04;;;;;;;111.93;43.72;;;21.90;99.90;;;;;;5053293;28;20041;-75
2023/08/25 08:50:34;;;;;;;120.18;43.30;;;22.20;99.90;;;;;;5053448;28;20045;-78
2023/08/25 08:53:00;;;;;;;116.63;41.90;;;22.30;99.90;;;;;;5035643;28;20045;-75
2023/08/25 08:55:27;;;;;;;109.75;41.20;;;22.50;99.90;;;;;;5053350;28;20056;-77
2023/08/25 08:57:53;;;;;;;;;;;22.40;99.90;;;;;;5086045;28;20099;-76
2023/08/25 09:00:19;;;;;;;115.30;42.88;;;22.40;99.90;;;;;;5056300;28;19933;-76
2023/08/25 09:02:50;;;;;;;105.55;41.20;;;22.30;99.90;;;;;;5055716;28;20065;-76
2023/08/25 09:05:19;;;;;;;112.75;41.65;;;22.20;99.90;;;;;;5056531;28;20405;-76
2023/08/25 09:07:47;;;;;;;106.95;42.00;;;22.20;99.90;;;;;;5056442;28;20416;-75
2023/08/25 09:10:12;;;;;;;112.45;42.35;;;22.20;99.90;;;;;;5089349;28;20052;-76
2023/08/25 09:12:38;;;;;;;104.30;40.00;;;22.10;99.90;;;;;;5055382;28;20464;-75
2023/08/25 09:15:07;;;;;;;103.77;39.43;;;21.80;99.90;;;;;;5056760;28;20045;-75
2023/08/25 09:17:34;;;;;;;106.47;40.67;;;21.80;99.90;;;;;;5056013;28;20104;-76
2023/08/25 09:20:10;;;;;;;122.13;43.50;;;21.80;99.90;;;;;;5056520;28;20092;-75
2023/08/25 09:22:35;;;;;;;119.10;42.20;;;21.80;99.90;;;;;;5055045;28;20064;-76
2023/08/25 09:25:01;;;;;;;114.47;43.40;;;21.70;99.90;;;;;;5021828;28;20049;-76
2023/08/25 09:27:27;;;;;;;111.80;42.10;;;21.60;99.90;;;;;;5071754;28;20056;-75
2023/08/25 09:30:04;;;;;;;115.90;42.37;;;21.50;99.90;;;;;;5056284;28;20362;-76
2023/08/25 09:32:30;;;;;;;107.85;41.08;;;21.40;99.90;;;;;;5055051;28;20291;-75
2023/08/25 09:35:13;;;;;;;108.35;42.30;;;21.50;99.90;;;;;;5071550;28;20552;-75
2023/08/25 09:37:43;;;;;;;101.38;39.80;;;21.60;99.90;;;;;;5038389;28;20044;-75
2023/08/25 09:40:13;;;;;;;103.88;40.75;;;21.60;99.90;;;;;;5054384;28;20551;-75
2023/08/25 09:42:39;;;;;;;111.38;41.47;;;21.60;99.90;;;;;;5056739;28;20362;-75
2023/08/25 09:45:06;;;;;;;109.10;40.33;;;21.60;99.90;;;;;;5056036;28;20136;-75
2023/08/25 09:47:32;;;;;;;105.55;41.13;;;21.50;99.90;;;;;;5054633;28;20053;-75
2023/08/25 09:49:58;;;;;;;111.40;40.88;;;21.60;99.90;;;;;;5055600;28;20040;-76
2023/08/25 09:52:32;;;;;;;111.60;41.78;;;21.80;99.90;;;;;;5055042;28;20524;-75
2023/08/25 09:54:58;;;;;;;103.63;41.55;;;21.80;99.90;;;;;;5054616;28;20486;-74
2023/08/25 09:57:24;;;;;;;108.03;40.03;;;21.90;99.90;;;;;;5055720;28;20044;-75
2023/08/25 09:59:50;;;;;;;101.70;39.50;;;21.90;99.90;;;;;;5054963;28;20056;-77
2023/08/25 10:02:16;;;;;;;109.72;41.75;;;21.90;99.90;;;;;;5054152;28;20072;-76
2023/08/25 10:04:42;;;;;;;111.30;43.03;;;21.90;99.90;;;;;;5054274;28;20037;-76
2023/08/25 10:07:10;;;;;;;126.90;48.40;;;21.90;99.90;;;;;;5055322;28;20053;-75
2023/08/25 10:09:35;;;;;;;133.35;49.08;;;21.90;99.90;;;;;;5055195;28;20041;-74
2023/08/25 10:12:04;;;;;;;132.70;47.80;;;21.90;99.90;;;;;;5053050;28;20056;-76
2023/08/25 10:14:32;;;;;;;127.65;45.65;;;21.90;99.90;;;;;;5055477;28;20056;-76
2023/08/25 10:17:01;;;;;;;122.20;46.60;;;21.90;99.90;;;;;;5054084;28;20053;-75
2023/08/25 10:19:29;;;;;;;119.18;45.92;;;21.80;99.90;;;;;;5053442;28;20048;-78
2023/08/25 10:21:58;;;;;;;114.70;43.22;;;21.80;99.90;;;;;;5053705;28;20098;-76
2023/08/25 10:24:28;;;;;;;121.63;45.08;;;21.90;99.90;;;;;;5054109;28;20132;-76
2023/08/25 10:26:55;;;;;;;122.90;45.33;;;21.90;99.90;;;;;;5054903;28;20130;-77
2023/08/25 10:29:23;;;;;;;104.30;41.60;;;21.90;99.90;;;;;;5054101;28;20362;-77
2023/08/25 10:31:59;;;;;;;118.15;42.50;;;21.90;99.90;;;;;;5053951;28;20461;-74
2023/08/25 10:34:57;;;;;;;107.20;41.17;;;21.90;99.90;;;;;;5038170;28;20053;-76
2023/08/25 10:37:24;;;;;;;104.03;39.05;;;22.00;99.90;;;;;;5042573;28;20056;-76
2023/08/25 10:40:10;;;;;;;99.75;37.67;;;22.10;99.90;;;;;;5054800;28;20049;-78
2023/08/25 10:42:36;;;;;;;86.65;32.33;;;22.20;99.90;;;;;;5054477;28;20402;-76
2023/08/25 10:45:04;;;;;;;75.40;28.95;;;22.30;99.90;;;;;;5036898;28;20428;-78
2023/08/25 10:47:30;;;;;;;71.72;30.00;;;22.70;99.90;;;;;;5054942;28;20443;-76
2023/08/25 10:50:00;;;;;;;79.50;30.15;;;23.00;99.90;;;;;;5036964;28;20045;-76
2023/08/25 10:52:26;;;;;;;66.88;27.95;;;22.90;99.90;;;;;;5054950;28;20486;-77
2023/08/25 10:54:53;;;;;;;63.85;23.88;;;23.20;99.90;;;;;;5070802;28;20049;-76
2023/08/25 10:57:27;;;;;;;64.72;25.35;;;23.40;99.90;;;;;;5054523;28;20052;-77
2023/08/25 11:00:17;;;;;;;58.88;23.33;;;23.50;99.90;;;;;;5053054;28;20056;-75
2023/08/25 11:02:43;;;;;;;48.53;19.85;;;23.50;99.90;;;;;;5055052;28;20457;-75
2023/08/25 11:05:31;;;;;;;47.60;18.73;;;23.70;99.90;;;;;;5053526;28;20071;-76
2023/08/25 11:08:00;;;;;;;54.25;19.85;;;23.70;99.90;;;;;;5054869;28;20045;-75
2023/08/25 11:10:30;;;;;;;51.38;21.73;;;23.70;99.90;;;;;;5054211;28;20056;-76
2023/08/25 11:12:58;;;;;;;33.60;13.38;;;23.80;99.90;;;;;;5054148;28;20390;-76
2023/08/25 11:15:24;;;;;;;33.03;13.18;;;24.00;99.90;;;;;;5054985;28;20053;-74
2023/08/25 11:17:50;;;;;;;35.28;13.63;;;24.30;99.90;;;;;;5054411;28;20436;-76
2023/08/25 11:20:16;;;;;;;42.00;15.05;;;24.50;99.90;;;;;;5036673;28;20106;-76
2023/08/25 11:22:56;;;;;;;40.30;16.43;;;24.70;99.90;;;;;;5054159;28;20048;-75
2023/08/25 11:25:22;;;;;;;44.13;15.10;;;24.70;99.90;;;;;;5036178;28;20490;-75
2023/08/25 11:27:52;;;;;;;36.38;14.82;;;24.90;99.90;;;;;;5053797;28;20051;-78
2023/08/25 11:30:18;;;;;;;35.03;14.88;;;25.00;99.90;;;;;;5052604;28;20045;-78
2023/08/25 11:32:48;;;;;;;42.78;15.60;;;25.00;99.90;;;;;;5054263;28;20127;-77
2023/08/25 11:35:14;;;;;;;44.67;15.75;;;24.80;99.90;;;;;;5053811;28;20127;-76
2023/08/25 11:37:40;;;;;;;40.97;16.00;;;24.80;99.90;;;;;;5052439;28;20048;-76
2023/08/25 11:40:12;;;;;;;;;;;24.60;99.90;;;;;;5036526;28;20041;-74
2023/08/25 11:42:39;;;;;;;42.78;13.65;;;24.30;99.90;;;;;;5052407;28;19927;-74
2023/08/25 11:45:10;;;;;;;42.40;16.25;;;23.90;99.90;;;;;;5053723;28;20516;-77
2023/08/25 11:47:37;;;;;;;36.90;14.13;;;23.50;99.90;;;;;;5052628;28;20057;-78
2023/08/25 11:50:04;;;;;;;34.63;14.57;;;23.20;99.90;;;;;;5053509;28;20386;-76
2023/08/25 11:52:33;;;;;;;32.30;13.10;;;22.90;99.90;;;;;;5052815;28;20059;-76
2023/08/25 11:55:00;;;;;;;33.10;12.00;;;22.70;99.90;;;;;;5052688;28;20343;-78
2023/08/25 11:57:36;;;;;;;34.67;12.32;;;22.50;99.90;;;;;;5053509;28;20378;-72
2023/08/25 12:00:04;;;;;;;39.92;15.35;;;22.40;99.90;;;;;;5054203;28;20347;-73
2023/08/25 12:02:30;;;;;;;40.78;16.13;;;22.20;99.90;;;;;;5053564;28;20063;-74
2023/08/25 12:04:59;;;;;;;49.33;19.43;;;22.20;99.90;;;;;;5053592;28;20132;-76
2023/08/25 12:07:27;;;;;;;48.28;21.45;;;22.00;99.90;;;;;;5053589;28;20099;-75
2023/08/25 12:09:57;;;;;;;46.28;19.52;;;21.90;99.90;;;;;;5052978;28;20489;-73
2023/08/25 12:12:23;;;;;;;41.58;17.05;;;21.80;99.90;;;;;;5052476;28;20048;-76
2023/08/25 12:14:53;;;;;;;41.17;17.30;;;21.60;99.90;;;;;;5053185;28;20077;-79
2023/08/25 12:17:29;;;;;;;49.83;19.85;;;21.50;99.90;;;;;;5053172;28;20051;-75
2023/08/25 12:19:56;;;;;;;67.50;24.23;;;21.20;99.90;;;;;;5053798;28;20130;-75
2023/08/25 12:22:23;;;;;;;68.80;25.30;;;21.30;99.90;;;;;;5052249;28;20132;-75
2023/08/25 12:24:49;;;;;;;59.83;25.25;;;21.30;99.90;;;;;;5052188;28;20052;-73